createdAt,value
2023-05-21T00:00:12.919Z,2.63
2023-05-21T00:02:43.075Z,1.60
2023-05-21T00:05:14.824Z,2.03
2023-05-21T00:07:44.041Z,2.33
2023-05-21T00:10:12.804Z,2.22
2023-05-21T00:12:41.913Z,2.50
2023-05-21T00:15:11.507Z,2.20
2023-05-21T00:17:40.420Z,2.10
2023-05-21T00:20:13.103Z,2.40
2023-05-21T00:22:42.434Z,2.57
2023-05-21T00:25:11.847Z,2.53
2023-05-21T00:27:40.843Z,2.60
2023-05-21T00:30:10.123Z,2.75
2023-05-21T00:32:38.785Z,2.70
2023-05-21T00:35:08.489Z,2.75
2023-05-21T00:37:38.383Z,2.90
2023-05-21T00:40:09.289Z,2.40
2023-05-21T00:42:39.927Z,2.60
2023-05-21T00:45:09.685Z,2.47
2023-05-21T00:47:39.289Z,2.58
2023-05-21T00:50:08.984Z,2.20
2023-05-21T00:52:42.087Z,2.30
2023-05-21T00:55:11.793Z,2.03
2023-05-21T00:57:42.585Z,1.88
2023-05-21T01:00:12.341Z,2.83
2023-05-21T01:02:41.303Z,2.40
2023-05-21T01:05:10.972Z,2.13
2023-05-21T01:07:43.440Z,2.00
2023-05-21T01:10:13.111Z,2.50
2023-05-21T01:12:43.928Z,2.42
2023-05-21T01:15:14.161Z,2.20
2023-05-21T01:17:42.969Z,2.47
2023-05-21T01:20:12.975Z,1.77
2023-05-21T01:22:52.600Z,2.47
2023-05-21T01:25:21.295Z,1.60
2023-05-21T01:27:49.987Z,2.25
2023-05-21T01:30:19.797Z,1.80
2023-05-21T01:32:56.281Z,2.00
2023-05-21T01:35:30.845Z,1.67
2023-05-21T01:38:05.802Z,1.67
2023-05-21T01:40:41.583Z,1.95
2023-05-21T01:43:12.174Z,1.90
2023-05-21T01:45:43.917Z,1.42
2023-05-21T01:48:13.982Z,2.25
2023-05-21T01:50:44.915Z,1.45
2023-05-21T01:53:17.340Z,1.75
2023-05-21T01:55:46.082Z,1.95
2023-05-21T01:58:15.836Z,1.77
2023-05-21T02:00:45.490Z,1.45
2023-05-21T02:03:16.542Z,1.60
2023-05-21T02:05:45.898Z,1.75
2023-05-21T02:08:16.222Z,1.63
2023-05-21T02:10:44.822Z,1.17
2023-05-21T02:13:13.465Z,2.10
2023-05-21T02:15:42.029Z,1.20
2023-05-21T02:18:11.478Z,2.10
2023-05-21T02:20:40.151Z,1.42
2023-05-21T02:23:08.729Z,1.80
2023-05-21T02:25:38.776Z,1.90
2023-05-21T02:28:07.864Z,1.95
2023-05-21T02:30:36.571Z,0.80
2023-05-21T02:33:05.318Z,1.30
2023-05-21T02:35:34.233Z,1.60
2023-05-21T02:38:03.187Z,1.15
2023-05-21T02:40:33.178Z,1.38
2023-05-21T02:43:03.138Z,1.40
2023-05-21T02:45:32.016Z,1.85
2023-05-21T02:48:00.651Z,1.13
2023-05-21T02:50:29.331Z,1.50
2023-05-21T02:52:59.667Z,1.85
2023-05-21T02:55:28.260Z,1.40
2023-05-21T02:57:56.817Z,2.07
2023-05-21T03:00:26.803Z,1.85
2023-05-21T03:02:55.487Z,1.60
2023-05-21T03:05:24.476Z,1.73
2023-05-21T03:07:53.430Z,1.77
2023-05-21T03:10:22.047Z,1.77
2023-05-21T03:12:50.913Z,1.67
2023-05-21T03:15:24.356Z,1.55
2023-05-21T03:17:55.350Z,1.70
2023-05-21T03:20:23.979Z,1.20
2023-05-21T03:22:52.894Z,1.10
2023-05-21T03:25:21.775Z,1.40
2023-05-21T03:27:50.362Z,1.60
2023-05-21T03:30:19.054Z,2.10
2023-05-21T03:32:49.793Z,1.90
2023-05-21T03:35:19.982Z,1.60
2023-05-21T03:37:48.556Z,1.93
2023-05-21T03:40:17.359Z,2.00
2023-05-21T03:42:45.976Z,1.70
2023-05-21T03:45:14.634Z,2.10
2023-05-21T03:47:43.253Z,1.70
2023-05-21T03:50:12.416Z,1.70
2023-05-21T03:52:42.430Z,1.38
2023-05-21T03:55:11.576Z,1.80
2023-05-21T03:57:40.162Z,1.58
2023-05-21T04:00:10.083Z,1.50
2023-05-21T04:02:38.836Z,2.17
2023-05-21T04:05:08.214Z,1.90
2023-05-21T04:07:38.432Z,2.05
2023-05-21T04:10:09.596Z,1.60
2023-05-21T04:12:38.144Z,1.75
2023-05-21T04:15:07.952Z,1.88
2023-05-21T04:17:36.593Z,1.50
2023-05-21T04:20:05.626Z,1.50
2023-05-21T04:22:35.344Z,1.90
2023-05-21T04:25:04.053Z,2.35
2023-05-21T04:27:34.610Z,2.10
2023-05-21T04:30:04.289Z,2.17
2023-05-21T04:32:33.380Z,2.33
2023-05-21T04:35:02.170Z,2.10
2023-05-21T04:37:31.518Z,1.55
2023-05-21T04:40:01.585Z,2.00
2023-05-21T04:42:30.502Z,1.93
2023-05-21T04:45:00.809Z,1.90
2023-05-21T04:47:30.446Z,1.70
2023-05-21T04:49:59.555Z,2.13
2023-05-21T04:52:28.119Z,1.63
2023-05-21T04:54:57.229Z,2.50
2023-05-21T04:57:26.076Z,1.80
2023-05-21T04:59:54.633Z,1.75
2023-05-21T05:02:24.597Z,2.00
2023-05-21T05:04:53.167Z,2.10
2023-05-21T05:07:21.763Z,1.90
2023-05-21T05:09:50.332Z,2.40
2023-05-21T05:12:20.682Z,1.90
2023-05-21T05:14:49.249Z,1.77
2023-05-21T05:17:18.797Z,1.90
2023-05-21T05:19:48.704Z,1.57
2023-05-21T05:22:17.299Z,2.17
2023-05-21T05:24:45.861Z,1.35
2023-05-21T05:27:14.456Z,2.40
2023-05-21T05:29:43.027Z,2.00
2023-05-21T05:32:11.621Z,2.25
2023-05-21T05:34:40.221Z,2.00
2023-05-21T05:37:10.162Z,2.15
2023-05-21T05:39:38.795Z,1.92
2023-05-21T05:42:07.638Z,1.55
2023-05-21T05:44:36.210Z,2.30
2023-05-21T05:47:09.152Z,2.10
2023-05-21T05:49:37.793Z,2.30
2023-05-21T05:52:07.063Z,2.40
2023-05-21T05:54:37.018Z,2.20
2023-05-21T05:57:05.935Z,2.10
2023-05-21T05:59:34.848Z,2.45
2023-05-21T06:02:03.372Z,2.05
2023-05-21T06:04:31.951Z,2.00
2023-05-21T06:07:00.993Z,2.30
2023-05-21T06:09:29.603Z,2.58
2023-05-21T06:11:59.549Z,2.07
2023-05-21T06:14:28.167Z,1.90
2023-05-21T06:16:56.749Z,2.55
2023-05-21T06:19:25.449Z,2.33
2023-05-21T06:21:54.113Z,2.45
2023-05-21T06:24:22.943Z,2.13
2023-05-21T06:26:51.804Z,2.30
2023-05-21T06:29:21.812Z,2.55
2023-05-21T06:31:50.765Z,1.88
2023-05-21T06:34:19.332Z,2.00
2023-05-21T06:36:47.901Z,1.90
2023-05-21T06:39:16.489Z,2.00
2023-05-21T06:41:45.090Z,2.05
2023-05-21T06:44:13.798Z,2.50
2023-05-21T06:46:43.796Z,2.72
2023-05-21T06:49:14.437Z,2.90
2023-05-21T06:51:43.197Z,2.33
2023-05-21T06:54:11.749Z,2.58
2023-05-21T06:56:40.306Z,2.47
2023-05-21T06:59:08.874Z,2.83
2023-05-21T07:01:37.639Z,2.78
2023-05-21T07:04:07.720Z,2.55
2023-05-21T07:06:36.417Z,2.50
2023-05-21T07:09:05.559Z,2.80
2023-05-21T07:11:34.381Z,2.70
2023-05-21T07:14:04.552Z,2.30
2023-05-21T07:16:33.117Z,2.60
2023-05-21T07:19:01.819Z,2.30
2023-05-21T07:21:31.773Z,2.60
2023-05-21T07:24:00.613Z,3.10
2023-05-21T07:26:29.218Z,2.80
2023-05-21T07:28:57.827Z,2.80
2023-05-21T07:31:26.794Z,2.58
2023-05-21T07:33:55.446Z,2.25
2023-05-21T07:36:23.970Z,2.33
2023-05-21T07:38:54.082Z,2.95
2023-05-21T07:41:23.155Z,2.72
2023-05-21T07:43:51.754Z,3.15
2023-05-21T07:46:20.582Z,2.57
2023-05-21T07:48:49.961Z,3.20
2023-05-21T07:51:18.699Z,3.17
2023-05-21T07:53:47.312Z,3.00
2023-05-21T07:56:17.261Z,2.25
2023-05-21T07:58:47.395Z,3.08
2023-05-21T08:01:16.019Z,3.17
2023-05-21T08:03:44.787Z,2.80
2023-05-21T08:06:13.490Z,3.13
2023-05-21T08:08:42.047Z,2.63
2023-05-21T08:11:10.715Z,2.50
2023-05-21T08:13:40.610Z,3.25
2023-05-21T08:16:09.352Z,2.08
2023-05-21T08:18:38.019Z,3.30
2023-05-21T08:21:06.668Z,2.65
2023-05-21T08:23:35.235Z,2.95
2023-05-21T08:26:03.828Z,2.80
2023-05-21T08:28:32.520Z,3.20
2023-05-21T08:31:02.498Z,2.90
2023-05-21T08:33:31.147Z,2.90
2023-05-21T08:36:00.366Z,3.45
2023-05-21T08:38:30.369Z,3.60
2023-05-21T08:41:00.200Z,3.17
2023-05-21T08:43:29.788Z,3.25
2023-05-21T08:46:01.554Z,3.67
2023-05-21T08:48:32.943Z,3.03
2023-05-21T08:51:02.109Z,3.67
2023-05-21T08:53:30.977Z,2.90
2023-05-21T08:55:59.800Z,3.47
2023-05-21T08:58:28.421Z,3.33
2023-05-21T09:00:57.230Z,3.50
2023-05-21T09:03:26.919Z,3.58
2023-05-21T09:05:57.658Z,4.10
2023-05-21T09:08:32.316Z,3.72
2023-05-21T09:11:02.490Z,3.13
2023-05-21T09:13:32.797Z,3.83
2023-05-21T09:16:01.461Z,3.15
2023-05-21T09:18:30.056Z,3.78
2023-05-21T09:21:20.812Z,4.20
2023-05-21T09:23:53.603Z,3.30
2023-05-21T09:26:23.626Z,3.63
2023-05-21T09:28:57.609Z,3.65
2023-05-21T09:31:27.095Z,3.95
2023-05-21T09:33:56.569Z,2.92
2023-05-21T09:36:26.524Z,3.63
2023-05-21T09:38:55.117Z,3.73
2023-05-21T09:41:33.683Z,3.17
2023-05-21T09:44:02.670Z,3.65
2023-05-21T09:46:41.679Z,4.40
2023-05-21T09:49:24.893Z,4.67
2023-05-21T09:51:58.622Z,4.37
2023-05-21T09:54:32.527Z,3.80
2023-05-21T09:57:02.675Z,3.95
2023-05-21T09:59:38.242Z,4.03
2023-05-21T10:02:18.978Z,4.20
2023-05-21T10:04:50.545Z,4.22
2023-05-21T10:07:26.295Z,4.00
2023-05-21T10:09:57.038Z,3.90
2023-05-21T10:12:26.354Z,3.50
2023-05-21T10:15:01.934Z,4.25
2023-05-21T10:17:31.513Z,4.18
2023-05-21T10:20:01.766Z,4.47
2023-05-21T10:22:32.227Z,4.32
2023-05-21T10:25:03.561Z,3.92
2023-05-21T10:27:33.319Z,4.22
2023-05-21T10:30:02.886Z,4.40
2023-05-21T10:32:32.715Z,4.65
2023-05-21T10:35:02.402Z,4.60
2023-05-21T10:37:32.343Z,3.92
2023-05-21T10:40:00.936Z,4.30
2023-05-21T10:43:01.479Z,4.03
2023-05-21T10:45:46.346Z,3.90
2023-05-21T10:48:28.822Z,4.47
2023-05-21T10:51:19.684Z,3.63
2023-05-21T10:54:17.969Z,4.00
2023-05-21T10:56:55.226Z,4.07
2023-05-21T10:59:37.561Z,4.55
2023-05-21T11:02:08.039Z,3.58
2023-05-21T11:04:40.103Z,4.43
2023-05-21T11:07:08.892Z,4.20
2023-05-21T11:09:39.954Z,3.20
2023-05-21T11:12:09.842Z,3.88
2023-05-21T11:14:40.435Z,4.10
2023-05-21T11:17:13.976Z,3.83
2023-05-21T11:19:43.965Z,3.88
2023-05-21T11:22:23.455Z,2.43
2023-05-21T11:24:54.400Z,4.18
2023-05-21T11:27:34.510Z,3.93
2023-05-21T11:30:08.131Z,3.77
2023-05-21T11:32:40.252Z,4.43
2023-05-21T11:35:09.939Z,3.78
2023-05-21T11:37:41.725Z,3.25
2023-05-21T11:40:26.803Z,3.90
2023-05-21T11:42:56.741Z,3.50
2023-05-21T11:45:29.650Z,4.03
2023-05-21T11:47:58.600Z,4.50
2023-05-21T11:50:30.622Z,4.25
2023-05-21T11:53:00.925Z,4.10
2023-05-21T11:55:32.060Z,4.50
2023-05-21T11:58:01.739Z,3.50
2023-05-21T12:00:30.299Z,3.60
2023-05-21T12:02:59.442Z,4.45
2023-05-21T12:05:28.236Z,3.50
2023-05-21T12:07:58.469Z,4.22
2023-05-21T12:10:27.057Z,4.43
2023-05-21T12:12:57.684Z,4.03
2023-05-21T12:15:28.077Z,4.10
2023-05-21T12:17:57.960Z,3.80
2023-05-21T12:20:29.050Z,3.53
2023-05-21T12:23:00.638Z,4.53
2023-05-21T12:25:30.511Z,4.20
2023-05-21T12:28:00.590Z,4.25
2023-05-21T12:30:30.853Z,3.20
2023-05-21T12:33:02.061Z,3.88
2023-05-21T12:35:32.676Z,4.38
2023-05-21T12:38:03.444Z,4.17
2023-05-21T12:40:39.424Z,4.05
2023-05-21T12:43:09.977Z,3.70
2023-05-21T12:45:40.769Z,3.58
2023-05-21T12:48:09.964Z,3.70
2023-05-21T12:50:41.801Z,3.70
2023-05-21T12:53:12.383Z,3.93
2023-05-21T12:55:41.497Z,3.95
2023-05-21T12:58:15.360Z,3.40
2023-05-21T13:00:45.496Z,3.65
2023-05-21T13:03:14.519Z,4.10
2023-05-21T13:05:43.222Z,3.97
2023-05-21T13:08:14.163Z,3.75
2023-05-21T13:10:42.842Z,3.80
2023-05-21T13:13:12.837Z,3.70
2023-05-21T13:15:41.492Z,3.78
2023-05-21T13:18:10.211Z,3.50
2023-05-21T13:20:39.292Z,3.08
2023-05-21T13:23:10.577Z,3.80
2023-05-21T13:25:40.197Z,3.15
2023-05-21T13:28:10.456Z,3.60
2023-05-21T13:30:40.512Z,3.70
2023-05-21T13:33:09.232Z,3.90
2023-05-21T13:35:38.058Z,3.60
2023-05-21T13:38:06.653Z,3.70
2023-05-21T13:40:38.121Z,3.10
2023-05-21T13:43:07.544Z,3.70
2023-05-21T13:45:36.238Z,3.63
2023-05-21T13:48:06.940Z,3.28
2023-05-21T13:50:35.776Z,3.58
2023-05-21T13:53:04.608Z,3.70
2023-05-21T13:55:33.179Z,3.75
2023-05-21T13:58:01.745Z,3.37
2023-05-21T14:00:30.345Z,3.40
2023-05-21T14:02:59.013Z,3.63
2023-05-21T14:05:29.116Z,2.63
2023-05-21T14:07:57.691Z,3.55
2023-05-21T14:10:26.449Z,3.75
2023-05-21T14:13:01.530Z,3.42
2023-05-21T14:15:37.098Z,3.22
2023-05-21T14:18:08.039Z,3.70
2023-05-21T14:20:38.012Z,3.80
2023-05-21T14:23:06.622Z,3.57
2023-05-21T14:25:35.318Z,3.40
2023-05-21T14:28:04.084Z,3.50
2023-05-21T14:30:32.633Z,3.78
2023-05-21T14:33:01.296Z,3.15
2023-05-21T14:35:29.927Z,3.45
2023-05-21T14:37:59.896Z,3.78
2023-05-21T14:40:28.457Z,3.35
2023-05-21T14:42:57.016Z,3.03
2023-05-21T14:45:25.572Z,3.30
2023-05-21T14:47:54.209Z,3.00
2023-05-21T14:50:22.860Z,3.37
2023-05-21T14:52:51.433Z,3.28
2023-05-21T14:55:22.494Z,2.75
2023-05-21T14:57:51.307Z,3.33
2023-05-21T15:00:19.988Z,3.15
2023-05-21T15:02:48.845Z,3.30
2023-05-21T15:05:17.574Z,2.92
2023-05-21T15:07:46.249Z,2.72
2023-05-21T15:10:17.205Z,3.17
2023-05-21T15:12:48.491Z,3.10
2023-05-21T15:15:17.923Z,3.00
2023-05-21T15:17:46.549Z,3.20
2023-05-21T15:20:15.539Z,3.00
2023-05-21T15:22:44.207Z,3.08
2023-05-21T15:25:12.809Z,3.10
2023-05-21T15:27:41.407Z,3.00
2023-05-21T15:30:12.063Z,3.10
2023-05-21T15:32:40.667Z,3.07
2023-05-21T15:35:09.887Z,2.85
2023-05-21T15:37:38.480Z,3.10
2023-05-21T15:40:08.828Z,2.97
2023-05-21T15:42:37.430Z,2.97
2023-05-21T15:45:06.658Z,2.85
2023-05-21T15:47:37.184Z,2.97
2023-05-21T15:50:06.190Z,3.08
2023-05-21T15:52:34.769Z,3.13
2023-05-21T15:55:03.318Z,2.97
2023-05-21T15:57:32.303Z,2.53
2023-05-21T16:00:00.923Z,3.08
2023-05-21T16:02:29.553Z,3.00
2023-05-21T16:04:59.498Z,2.83
2023-05-21T16:07:28.083Z,2.72
2023-05-21T16:09:56.628Z,3.20
2023-05-21T16:12:25.189Z,3.25
2023-05-21T16:14:53.751Z,3.30
2023-05-21T16:17:22.313Z,3.05
2023-05-21T16:19:51.127Z,3.13
2023-05-21T16:22:22.090Z,2.53
2023-05-21T16:24:50.667Z,2.50
2023-05-21T16:27:19.270Z,2.60
2023-05-21T16:29:47.892Z,2.65
2023-05-21T16:32:16.493Z,3.25
2023-05-21T16:34:45.114Z,2.63
2023-05-21T16:37:13.649Z,2.88
2023-05-21T16:39:43.598Z,2.88
2023-05-21T16:42:12.133Z,3.00
2023-05-21T16:44:40.862Z,3.10
2023-05-21T16:47:09.448Z,2.60
2023-05-21T16:49:38.004Z,3.10
2023-05-21T16:52:07.039Z,3.20
2023-05-21T16:54:35.761Z,3.10
2023-05-21T16:57:05.822Z,3.10
2023-05-21T16:59:34.395Z,3.03
2023-05-21T17:02:03.434Z,3.00
2023-05-21T17:04:32.027Z,2.80
2023-05-21T17:07:01.513Z,3.33
2023-05-21T17:09:30.048Z,3.53
2023-05-21T17:11:58.673Z,2.92
2023-05-21T17:17:00.725Z,3.45
2023-05-21T17:19:29.567Z,3.33
2023-05-21T17:21:58.375Z,3.58
2023-05-21T17:24:27.030Z,3.20
2023-05-21T17:26:55.758Z,3.10
2023-05-21T17:29:24.320Z,2.50
2023-05-21T17:31:54.291Z,3.10
2023-05-21T17:34:24.621Z,3.47
2023-05-21T17:36:54.751Z,2.87
2023-05-21T17:39:23.731Z,3.28
2023-05-21T17:41:52.791Z,2.50
2023-05-21T17:44:21.678Z,3.50
2023-05-21T17:46:52.016Z,3.50
2023-05-21T17:49:22.387Z,3.20
2023-05-21T17:51:51.090Z,3.08
2023-05-21T17:54:20.007Z,3.30
2023-05-21T17:56:48.600Z,3.00
2023-05-21T17:59:17.306Z,3.70
2023-05-21T18:01:45.864Z,3.40
2023-05-21T18:04:14.490Z,3.20
2023-05-21T18:06:44.803Z,3.83
2023-05-21T18:09:15.213Z,3.00
2023-05-21T18:11:45.062Z,2.50
2023-05-21T18:14:13.707Z,3.35
2023-05-21T18:16:42.470Z,3.00
2023-05-21T18:19:11.292Z,3.67
2023-05-21T18:21:39.999Z,3.05
2023-05-21T18:24:10.265Z,3.20
2023-05-21T18:26:38.826Z,3.00
2023-05-21T18:29:07.395Z,3.53
2023-05-21T18:31:36.030Z,3.88
2023-05-21T18:34:04.649Z,3.45
2023-05-21T18:36:38.568Z,3.50
2023-05-21T18:39:09.867Z,3.33
2023-05-21T18:41:39.883Z,3.42
2023-05-21T18:44:08.420Z,3.03
2023-05-21T18:46:37.715Z,3.03
2023-05-21T18:49:07.050Z,3.50
2023-05-21T18:51:35.691Z,3.23
2023-05-21T18:54:04.331Z,3.10
2023-05-21T18:56:34.271Z,3.67
2023-05-21T18:59:02.804Z,3.30
2023-05-21T19:01:31.554Z,3.58
2023-05-21T19:04:00.200Z,2.75
2023-05-21T19:06:28.786Z,1.90
2023-05-21T19:08:57.440Z,1.60
2023-05-21T19:11:30.930Z,2.65
2023-05-21T19:14:01.152Z,1.60
2023-05-21T19:16:29.795Z,1.50
2023-05-21T19:18:58.938Z,1.50
2023-05-21T19:21:27.569Z,3.50
2023-05-21T19:23:56.122Z,3.33
2023-05-21T19:26:24.957Z,3.15
2023-05-21T19:28:54.677Z,3.60
2023-05-21T19:31:25.383Z,2.67
2023-05-21T19:33:54.181Z,2.70
2023-05-21T19:36:23.282Z,2.28
2023-05-21T19:38:52.490Z,3.37
2023-05-21T19:41:22.736Z,3.90
2023-05-21T19:43:51.385Z,3.33
2023-05-21T19:46:20.579Z,3.35
2023-05-21T19:48:51.559Z,2.75
2023-05-21T19:51:20.095Z,4.10
2023-05-21T19:53:48.681Z,3.67
2023-05-21T19:56:17.696Z,3.00
2023-05-21T19:58:48.039Z,3.70
2023-05-21T20:01:17.863Z,3.38
2023-05-21T20:03:46.602Z,2.60
2023-05-21T20:06:19.084Z,3.40
2023-05-21T20:08:48.081Z,1.80
2023-05-21T20:11:16.824Z,1.80
2023-05-21T20:13:49.999Z,1.75
2023-05-21T20:16:20.059Z,2.30
2023-05-21T20:18:48.986Z,2.42
2023-05-21T20:21:20.191Z,2.38
2023-05-21T20:23:48.766Z,2.72
2023-05-21T20:26:18.874Z,2.60
2023-05-21T20:28:47.469Z,3.55
2023-05-21T20:31:16.252Z,4.25
2023-05-21T20:33:44.832Z,3.83
2023-05-21T20:36:15.199Z,3.97
2023-05-21T20:38:45.724Z,3.77
2023-05-21T20:41:14.435Z,3.97
2023-05-21T20:43:45.856Z,4.03
2023-05-21T20:46:17.749Z,3.00
2023-05-21T20:48:47.348Z,3.45
2023-05-21T20:51:15.989Z,3.72
2023-05-21T20:53:45.953Z,5.18
2023-05-21T20:56:14.878Z,5.13
2023-05-21T20:58:43.542Z,5.85
2023-05-21T21:01:14.476Z,5.13
2023-05-21T21:03:45.711Z,6.07
2023-05-21T21:06:14.491Z,5.80
2023-05-21T21:08:46.169Z,6.15
2023-05-21T21:11:16.095Z,5.50
2023-05-21T21:13:44.702Z,5.35
2023-05-21T21:16:13.253Z,5.95
2023-05-21T21:18:41.842Z,6.97
2023-05-21T21:21:10.441Z,6.28
2023-05-21T21:23:38.983Z,6.30
2023-05-21T21:26:07.670Z,6.30
2023-05-21T21:28:37.571Z,5.53
2023-05-21T21:31:06.226Z,6.60
2023-05-21T21:33:34.831Z,6.78
2023-05-21T21:36:03.448Z,6.25
2023-05-21T21:38:32.014Z,6.60
2023-05-21T21:41:00.568Z,4.95
2023-05-21T21:43:29.123Z,5.57
2023-05-21T21:45:59.078Z,5.60
2023-05-21T21:48:27.613Z,5.47
2023-05-21T21:50:56.823Z,4.60
2023-05-21T21:53:25.361Z,4.55
2023-05-21T21:55:55.152Z,5.97
2023-05-21T21:58:23.741Z,5.17
2023-05-21T22:00:52.363Z,5.32
2023-05-21T22:03:22.293Z,4.70
2023-05-21T22:05:51.635Z,4.78
2023-05-21T22:08:20.158Z,4.72
2023-05-21T22:10:48.832Z,3.00
2023-05-21T22:13:17.544Z,2.22
2023-05-21T22:15:46.100Z,2.58
2023-05-21T22:18:18.444Z,2.78
2023-05-21T22:20:52.562Z,3.35
2023-05-21T22:23:21.193Z,3.23
2023-05-21T22:25:49.774Z,3.05
2023-05-21T22:28:18.397Z,3.97
2023-05-21T22:30:47.105Z,3.63
2023-05-21T22:33:16.000Z,2.10
2023-05-21T22:35:44.595Z,3.75
2023-05-21T22:38:14.503Z,3.55
2023-05-21T22:40:43.037Z,4.35
2023-05-21T22:43:11.651Z,4.28
2023-05-21T22:45:40.660Z,4.57
2023-05-21T22:48:10.185Z,4.20
2023-05-21T22:50:39.435Z,4.63
2023-05-21T22:53:08.304Z,4.10
2023-05-21T22:55:38.224Z,3.60
2023-05-21T22:58:06.802Z,4.70
2023-05-21T23:00:35.513Z,3.60
2023-05-21T23:03:04.298Z,4.60
2023-05-21T23:05:32.922Z,3.20
2023-05-21T23:08:01.505Z,4.35
2023-05-21T23:10:30.081Z,4.27
2023-05-21T23:13:00.038Z,4.85
2023-05-21T23:15:29.582Z,5.07
2023-05-21T23:17:58.206Z,4.40
2023-05-21T23:20:27.886Z,5.30
2023-05-21T23:22:56.434Z,4.10
2023-05-21T23:25:25.006Z,4.50
2023-05-21T23:27:53.609Z,3.60
2023-05-21T23:30:23.516Z,4.28
2023-05-21T23:32:52.762Z,4.22
2023-05-21T23:35:21.665Z,2.65
2023-05-21T23:37:50.230Z,4.57
2023-05-21T23:40:18.932Z,3.65
2023-05-21T23:42:47.500Z,4.57
2023-05-21T23:45:17.915Z,4.30
2023-05-21T23:47:47.953Z,4.60
2023-05-21T23:50:16.750Z,3.60
2023-05-21T23:52:45.415Z,4.00
2023-05-21T23:55:14.922Z,3.85
2023-05-21T23:57:43.556Z,3.23
